sensor_id;sensor_type;location;lat;lon;timestamp;temperature;humidity
24686;DHT22;12804;51.176;4.452;2024-03-02T00:02:15;6.50;99.90
24686;DHT22;12804;51.176;4.452;2024-03-02T00:04:44;6.50;99.90
24686;DHT22;12804;51.176;4.452;2024-03-02T00:07:14;6.50;99.90
24686;DHT22;12804;51.176;4.452;2024-03-02T00:09:40;6.40;99.90
24686;DHT22;12804;51.176;4.452;2024-03-02T00:12:06;6.40;99.90
24686;DHT22;12804;51.176;4.452;2024-03-02T00:14:32;6.40;99.90
24686;DHT22;12804;51.176;4.452;2024-03-02T00:16:59;6.40;99.90
24686;DHT22;12804;51.176;4.452;2024-03-02T00:19:25;6.40;99.90
24686;DHT22;12804;51.176;4.452;2024-03-02T00:21:50;6.40;99.90
24686;DHT22;12804;51.176;4.452;2024-03-02T00:24:34;6.40;99.90
24686;DHT22;12804;51.176;4.452;2024-03-02T00:27:01;6.40;99.90
24686;DHT22;12804;51.176;4.452;2024-03-02T00:29:29;6.40;99.90
24686;DHT22;12804;51.176;4.452;2024-03-02T00:31:55;6.40;99.90
24686;DHT22;12804;51.176;4.452;2024-03-02T00:34:21;6.40;99.90
24686;DHT22;12804;51.176;4.452;2024-03-02T00:36:48;6.40;99.90
24686;DHT22;12804;51.176;4.452;2024-03-02T00:39:15;6.40;99.90
24686;DHT22;12804;51.176;4.452;2024-03-02T00:41:42;6.40;99.90
24686;DHT22;12804;51.176;4.452;2024-03-02T00:44:15;6.40;99.90
24686;DHT22;12804;51.176;4.452;2024-03-02T00:46:42;6.40;99.90
24686;DHT22;12804;51.176;4.452;2024-03-02T00:49:18;6.30;99.90
24686;DHT22;12804;51.176;4.452;2024-03-02T00:51:48;6.40;99.90
24686;DHT22;12804;51.176;4.452;2024-03-02T00:54:15;6.40;99.90
24686;DHT22;12804;51.176;4.452;2024-03-02T00:56:44;6.40;99.90
24686;DHT22;12804;51.176;4.452;2024-03-02T00:59:10;6.40;99.90
24686;DHT22;12804;51.176;4.452;2024-03-02T01:01:36;6.40;99.90
24686;DHT22;12804;51.176;4.452;2024-03-02T01:04:03;6.40;99.90
24686;DHT22;12804;51.176;4.452;2024-03-02T01:06:29;6.40;99.90
24686;DHT22;12804;51.176;4.452;2024-03-02T01:08:55;6.40;99.90
24686;DHT22;12804;51.176;4.452;2024-03-02T01:11:21;6.40;99.90
24686;DHT22;12804;51.176;4.452;2024-03-02T01:13:50;6.40;99.90
24686;DHT22;12804;51.176;4.452;2024-03-02T01:16:17;6.40;99.90
24686;DHT22;12804;51.176;4.452;2024-03-02T01:18:43;6.40;99.90
24686;DHT22;12804;51.176;4.452;2024-03-02T01:21:09;6.40;99.90
24686;DHT22;12804;51.176;4.452;2024-03-02T01:23:35;6.40;99.90
24686;DHT22;12804;51.176;4.452;2024-03-02T01:26:01;6.40;99.90
24686;DHT22;12804;51.176;4.452;2024-03-02T01:28:27;6.50;99.90
24686;DHT22;12804;51.176;4.452;2024-03-02T01:30:53;6.40;99.90
24686;DHT22;12804;51.176;4.452;2024-03-02T01:33:19;6.40;99.90
24686;DHT22;12804;51.176;4.452;2024-03-02T01:35:45;6.40;99.90
24686;DHT22;12804;51.176;4.452;2024-03-02T01:38:11;6.40;99.90
24686;DHT22;12804;51.176;4.452;2024-03-02T01:40:40;6.40;99.90
24686;DHT22;12804;51.176;4.452;2024-03-02T01:43:07;6.50;99.90
24686;DHT22;12804;51.176;4.452;2024-03-02T01:45:34;6.40;99.90
24686;DHT22;12804;51.176;4.452;2024-03-02T01:48:01;6.40;99.90
24686;DHT22;12804;51.176;4.452;2024-03-02T01:50:28;6.50;99.90
24686;DHT22;12804;51.176;4.452;2024-03-02T01:52:58;6.50;99.90
24686;DHT22;12804;51.176;4.452;2024-03-02T01:55:24;6.60;99.90
24686;DHT22;12804;51.176;4.452;2024-03-02T01:57:51;6.60;99.90
24686;DHT22;12804;51.176;4.452;2024-03-02T02:00:19;6.60;99.90
24686;DHT22;12804;51.176;4.452;2024-03-02T02:02:45;6.60;99.90
24686;DHT22;12804;51.176;4.452;2024-03-02T02:05:12;6.60;99.90
24686;DHT22;12804;51.176;4.452;2024-03-02T02:07:38;6.60;99.90
24686;DHT22;12804;51.176;4.452;2024-03-02T02:10:04;6.60;99.90
24686;DHT22;12804;51.176;4.452;2024-03-02T02:12:30;6.70;99.90
24686;DHT22;12804;51.176;4.452;2024-03-02T02:14:56;6.70;99.90
24686;DHT22;12804;51.176;4.452;2024-03-02T02:17:22;6.70;99.90
24686;DHT22;12804;51.176;4.452;2024-03-02T02:19:48;6.70;99.90
24686;DHT22;12804;51.176;4.452;2024-03-02T02:22:14;6.70;99.90
24686;DHT22;12804;51.176;4.452;2024-03-02T02:24:40;6.70;99.90
24686;DHT22;12804;51.176;4.452;2024-03-02T02:27:07;6.70;99.90
24686;DHT22;12804;51.176;4.452;2024-03-02T02:29:33;6.70;99.90
24686;DHT22;12804;51.176;4.452;2024-03-02T02:31:59;6.80;99.90
24686;DHT22;12804;51.176;4.452;2024-03-02T02:34:25;6.80;99.90
24686;DHT22;12804;51.176;4.452;2024-03-02T02:36:51;6.70;99.90
24686;DHT22;12804;51.176;4.452;2024-03-02T02:39:20;6.70;99.90
24686;DHT22;12804;51.176;4.452;2024-03-02T02:41:46;6.60;99.90
24686;DHT22;12804;51.176;4.452;2024-03-02T02:44:12;6.60;99.90
24686;DHT22;12804;51.176;4.452;2024-03-02T02:46:39;6.60;99.90
24686;DHT22;12804;51.176;4.452;2024-03-02T02:49:05;6.70;99.90
24686;DHT22;12804;51.176;4.452;2024-03-02T02:51:30;6.70;99.90
24686;DHT22;12804;51.176;4.452;2024-03-02T02:53:56;6.70;99.90
24686;DHT22;12804;51.176;4.452;2024-03-02T02:56:22;6.70;99.90
24686;DHT22;12804;51.176;4.452;2024-03-02T02:58:48;6.80;99.90
24686;DHT22;12804;51.176;4.452;2024-03-02T03:01:15;6.80;99.90
24686;DHT22;12804;51.176;4.452;2024-03-02T03:03:43;6.80;99.90
24686;DHT22;12804;51.176;4.452;2024-03-02T03:06:10;6.80;99.90
24686;DHT22;12804;51.176;4.452;2024-03-02T03:08:36;6.80;99.90
24686;DHT22;12804;51.176;4.452;2024-03-02T03:11:02;6.80;99.90
24686;DHT22;12804;51.176;4.452;2024-03-02T03:13:28;6.80;99.90
24686;DHT22;12804;51.176;4.452;2024-03-02T03:15:54;6.80;99.90
24686;DHT22;12804;51.176;4.452;2024-03-02T03:18:19;6.80;99.90
24686;DHT22;12804;51.176;4.452;2024-03-02T03:20:45;6.90;99.90
24686;DHT22;12804;51.176;4.452;2024-03-02T03:23:11;6.90;99.90
24686;DHT22;12804;51.176;4.452;2024-03-02T03:25:46;6.90;99.90
24686;DHT22;12804;51.176;4.452;2024-03-02T03:28:12;6.90;99.90
24686;DHT22;12804;51.176;4.452;2024-03-02T03:30:38;6.90;99.90
24686;DHT22;12804;51.176;4.452;2024-03-02T03:33:05;6.90;99.90
24686;DHT22;12804;51.176;4.452;2024-03-02T03:35:34;6.80;99.90
24686;DHT22;12804;51.176;4.452;2024-03-02T03:38:00;6.90;99.90
24686;DHT22;12804;51.176;4.452;2024-03-02T03:40:26;6.90;99.90
24686;DHT22;12804;51.176;4.452;2024-03-02T03:42:52;6.90;99.90
24686;DHT22;12804;51.176;4.452;2024-03-02T03:45:18;6.80;99.90
24686;DHT22;12804;51.176;4.452;2024-03-02T03:47:44;6.80;99.90
24686;DHT22;12804;51.176;4.452;2024-03-02T03:50:10;6.80;99.90
24686;DHT22;12804;51.176;4.452;2024-03-02T03:52:36;6.70;99.90
24686;DHT22;12804;51.176;4.452;2024-03-02T03:55:02;6.70;99.90
24686;DHT22;12804;51.176;4.452;2024-03-02T03:57:28;6.70;99.90
24686;DHT22;12804;51.176;4.452;2024-03-02T03:59:54;6.60;99.90
24686;DHT22;12804;51.176;4.452;2024-03-02T04:02:19;6.60;99.90
24686;DHT22;12804;51.176;4.452;2024-03-02T04:04:45;6.50;99.90
24686;DHT22;12804;51.176;4.452;2024-03-02T04:07:11;6.50;99.90
24686;DHT22;12804;51.176;4.452;2024-03-02T04:09:37;6.50;99.90
24686;DHT22;12804;51.176;4.452;2024-03-02T04:12:03;6.40;99.90
24686;DHT22;12804;51.176;4.452;2024-03-02T04:14:29;6.40;99.90
24686;DHT22;12804;51.176;4.452;2024-03-02T04:16:55;6.40;99.90
24686;DHT22;12804;51.176;4.452;2024-03-02T04:19:21;6.50;99.90
24686;DHT22;12804;51.176;4.452;2024-03-02T04:21:46;6.50;99.90
24686;DHT22;12804;51.176;4.452;2024-03-02T04:24:12;6.50;99.90
24686;DHT22;12804;51.176;4.452;2024-03-02T04:26:38;6.50;99.90
24686;DHT22;12804;51.176;4.452;2024-03-02T04:29:04;6.60;99.90
24686;DHT22;12804;51.176;4.452;2024-03-02T04:31:30;6.50;99.90
24686;DHT22;12804;51.176;4.452;2024-03-02T04:33:55;6.50;99.90
24686;DHT22;12804;51.176;4.452;2024-03-02T04:36:21;6.50;99.90
24686;DHT22;12804;51.176;4.452;2024-03-02T04:38:48;6.40;99.90
24686;DHT22;12804;51.176;4.452;2024-03-02T04:41:14;6.40;99.90
24686;DHT22;12804;51.176;4.452;2024-03-02T04:43:40;6.40;99.90
24686;DHT22;12804;51.176;4.452;2024-03-02T04:46:06;6.40;99.90
24686;DHT22;12804;51.176;4.452;2024-03-02T04:48:33;6.30;99.90
24686;DHT22;12804;51.176;4.452;2024-03-02T04:50:59;6.30;99.90
24686;DHT22;12804;51.176;4.452;2024-03-02T04:53:25;6.30;99.90
24686;DHT22;12804;51.176;4.452;2024-03-02T04:55:51;6.30;99.90
24686;DHT22;12804;51.176;4.452;2024-03-02T04:58:37;6.30;99.90
24686;DHT22;12804;51.176;4.452;2024-03-02T05:01:02;6.30;99.90
24686;DHT22;12804;51.176;4.452;2024-03-02T05:03:28;6.40;99.90
24686;DHT22;12804;51.176;4.452;2024-03-02T05:05:54;6.30;99.90
24686;DHT22;12804;51.176;4.452;2024-03-02T05:08:20;6.30;99.90
24686;DHT22;12804;51.176;4.452;2024-03-02T05:10:45;6.30;99.90
24686;DHT22;12804;51.176;4.452;2024-03-02T05:13:11;6.20;99.90
24686;DHT22;12804;51.176;4.452;2024-03-02T05:15:37;6.20;99.90
24686;DHT22;12804;51.176;4.452;2024-03-02T05:18:03;6.10;99.90
24686;DHT22;12804;51.176;4.452;2024-03-02T05:20:30;6.10;99.90
24686;DHT22;12804;51.176;4.452;2024-03-02T05:22:56;6.00;99.90
24686;DHT22;12804;51.176;4.452;2024-03-02T05:25:22;6.00;99.90
24686;DHT22;12804;51.176;4.452;2024-03-02T05:27:48;6.00;99.90
24686;DHT22;12804;51.176;4.452;2024-03-02T05:30:14;6.00;99.90
24686;DHT22;12804;51.176;4.452;2024-03-02T05:32:40;6.00;99.90
24686;DHT22;12804;51.176;4.452;2024-03-02T05:35:06;6.00;99.90
24686;DHT22;12804;51.176;4.452;2024-03-02T05:37:32;5.90;99.90
24686;DHT22;12804;51.176;4.452;2024-03-02T05:39:58;5.80;99.90
24686;DHT22;12804;51.176;4.452;2024-03-02T05:42:25;5.80;99.90
24686;DHT22;12804;51.176;4.452;2024-03-02T05:44:50;5.80;99.90
24686;DHT22;12804;51.176;4.452;2024-03-02T05:47:16;5.70;99.90
24686;DHT22;12804;51.176;4.452;2024-03-02T05:49:42;5.70;99.90
24686;DHT22;12804;51.176;4.452;2024-03-02T05:52:08;5.70;99.90
24686;DHT22;12804;51.176;4.452;2024-03-02T05:54:34;5.70;99.90
24686;DHT22;12804;51.176;4.452;2024-03-02T05:57:00;5.60;99.90
24686;DHT22;12804;51.176;4.452;2024-03-02T05:59:42;5.60;99.90
24686;DHT22;12804;51.176;4.452;2024-03-02T06:02:09;5.60;99.90
24686;DHT22;12804;51.176;4.452;2024-03-02T06:04:35;5.60;99.90
24686;DHT22;12804;51.176;4.452;2024-03-02T06:07:00;5.60;99.90
24686;DHT22;12804;51.176;4.452;2024-03-02T06:09:26;5.60;99.90
24686;DHT22;12804;51.176;4.452;2024-03-02T06:11:52;5.60;99.90
24686;DHT22;12804;51.176;4.452;2024-03-02T06:14:18;5.50;99.90
24686;DHT22;12804;51.176;4.452;2024-03-02T06:16:43;5.50;99.90
24686;DHT22;12804;51.176;4.452;2024-03-02T06:19:09;5.60;99.90
24686;DHT22;12804;51.176;4.452;2024-03-02T06:21:35;5.50;99.90
24686;DHT22;12804;51.176;4.452;2024-03-02T06:24:01;5.50;99.90
24686;DHT22;12804;51.176;4.452;2024-03-02T06:26:26;5.50;99.90
24686;DHT22;12804;51.176;4.452;2024-03-02T06:28:52;5.50;99.90
24686;DHT22;12804;51.176;4.452;2024-03-02T06:31:18;5.50;99.90
24686;DHT22;12804;51.176;4.452;2024-03-02T06:33:44;5.50;99.90
24686;DHT22;12804;51.176;4.452;2024-03-02T06:36:09;5.50;99.90
24686;DHT22;12804;51.176;4.452;2024-03-02T06:38:37;5.50;99.90
24686;DHT22;12804;51.176;4.452;2024-03-02T06:41:03;5.50;99.90
24686;DHT22;12804;51.176;4.452;2024-03-02T06:43:29;5.50;99.90
24686;DHT22;12804;51.176;4.452;2024-03-02T06:45:54;5.40;99.90
24686;DHT22;12804;51.176;4.452;2024-03-02T06:48:20;5.40;99.90
24686;DHT22;12804;51.176;4.452;2024-03-02T06:50:47;5.40;99.90
24686;DHT22;12804;51.176;4.452;2024-03-02T06:53:16;5.40;99.90
24686;DHT22;12804;51.176;4.452;2024-03-02T06:55:45;5.40;99.90
24686;DHT22;12804;51.176;4.452;2024-03-02T06:58:12;5.40;99.90
24686;DHT22;12804;51.176;4.452;2024-03-02T07:00:38;5.40;99.90
24686;DHT22;12804;51.176;4.452;2024-03-02T07:03:04;5.40;99.90
24686;DHT22;12804;51.176;4.452;2024-03-02T07:05:30;5.40;99.90
24686;DHT22;12804;51.176;4.452;2024-03-02T07:07:56;5.40;99.90
24686;DHT22;12804;51.176;4.452;2024-03-02T07:10:21;5.40;99.90
24686;DHT22;12804;51.176;4.452;2024-03-02T07:12:47;5.50;99.90
24686;DHT22;12804;51.176;4.452;2024-03-02T07:15:13;5.50;99.90
24686;DHT22;12804;51.176;4.452;2024-03-02T07:17:54;5.60;99.90
24686;DHT22;12804;51.176;4.452;2024-03-02T07:20:20;5.60;99.90
24686;DHT22;12804;51.176;4.452;2024-03-02T07:22:46;5.70;99.90
24686;DHT22;12804;51.176;4.452;2024-03-02T07:25:12;5.70;99.90
24686;DHT22;12804;51.176;4.452;2024-03-02T07:27:39;5.70;99.90
24686;DHT22;12804;51.176;4.452;2024-03-02T07:30:07;5.80;99.90
24686;DHT22;12804;51.176;4.452;2024-03-02T07:32:32;5.80;99.90
24686;DHT22;12804;51.176;4.452;2024-03-02T07:34:58;5.80;99.90
24686;DHT22;12804;51.176;4.452;2024-03-02T07:37:24;5.90;99.90
24686;DHT22;12804;51.176;4.452;2024-03-02T07:39:50;5.90;99.90
24686;DHT22;12804;51.176;4.452;2024-03-02T07:42:16;5.90;99.90
24686;DHT22;12804;51.176;4.452;2024-03-02T07:44:44;6.00;99.90
24686;DHT22;12804;51.176;4.452;2024-03-02T07:47:10;6.00;99.90
24686;DHT22;12804;51.176;4.452;2024-03-02T07:49:36;6.10;99.90
24686;DHT22;12804;51.176;4.452;2024-03-02T07:52:02;6.20;99.90
24686;DHT22;12804;51.176;4.452;2024-03-02T07:54:28;6.30;99.90
24686;DHT22;12804;51.176;4.452;2024-03-02T07:56:54;6.40;99.90
24686;DHT22;12804;51.176;4.452;2024-03-02T07:59:20;6.50;99.90
24686;DHT22;12804;51.176;4.452;2024-03-02T08:01:49;6.60;99.90
24686;DHT22;12804;51.176;4.452;2024-03-02T08:04:16;6.90;99.90
24686;DHT22;12804;51.176;4.452;2024-03-02T08:06:42;6.90;99.90
24686;DHT22;12804;51.176;4.452;2024-03-02T08:09:07;6.90;99.90
24686;DHT22;12804;51.176;4.452;2024-03-02T08:11:36;6.90;99.90
24686;DHT22;12804;51.176;4.452;2024-03-02T08:14:18;6.90;99.90
24686;DHT22;12804;51.176;4.452;2024-03-02T08:16:43;7.00;99.90
24686;DHT22;12804;51.176;4.452;2024-03-02T08:19:10;7.10;99.90
24686;DHT22;12804;51.176;4.452;2024-03-02T08:21:35;7.10;99.90
24686;DHT22;12804;51.176;4.452;2024-03-02T08:24:02;7.10;99.90
24686;DHT22;12804;51.176;4.452;2024-03-02T08:26:28;7.10;99.90
24686;DHT22;12804;51.176;4.452;2024-03-02T08:28:55;7.20;99.90
24686;DHT22;12804;51.176;4.452;2024-03-02T08:31:21;7.20;99.90
24686;DHT22;12804;51.176;4.452;2024-03-02T08:33:47;7.30;99.90
24686;DHT22;12804;51.176;4.452;2024-03-02T08:36:13;7.30;99.90
24686;DHT22;12804;51.176;4.452;2024-03-02T08:38:38;7.40;99.90
24686;DHT22;12804;51.176;4.452;2024-03-02T08:41:04;7.40;99.90
24686;DHT22;12804;51.176;4.452;2024-03-02T08:43:30;7.50;99.90
24686;DHT22;12804;51.176;4.452;2024-03-02T08:45:56;7.50;99.90
24686;DHT22;12804;51.176;4.452;2024-03-02T08:48:22;7.60;99.90
24686;DHT22;12804;51.176;4.452;2024-03-02T08:50:48;7.70;99.90
24686;DHT22;12804;51.176;4.452;2024-03-02T08:53:14;7.70;99.90
24686;DHT22;12804;51.176;4.452;2024-03-02T08:55:45;7.80;99.90
24686;DHT22;12804;51.176;4.452;2024-03-02T08:58:11;7.90;99.90
24686;DHT22;12804;51.176;4.452;2024-03-02T09:00:37;7.90;99.90
24686;DHT22;12804;51.176;4.452;2024-03-02T09:03:03;7.90;99.90
24686;DHT22;12804;51.176;4.452;2024-03-02T09:05:29;8.10;99.90
24686;DHT22;12804;51.176;4.452;2024-03-02T09:07:55;8.20;99.90
24686;DHT22;12804;51.176;4.452;2024-03-02T09:10:21;8.20;99.90
24686;DHT22;12804;51.176;4.452;2024-03-02T09:12:46;8.40;99.90
24686;DHT22;12804;51.176;4.452;2024-03-02T09:15:12;8.40;99.90
24686;DHT22;12804;51.176;4.452;2024-03-02T09:17:38;8.40;99.90
24686;DHT22;12804;51.176;4.452;2024-03-02T09:20:05;8.50;99.90
24686;DHT22;12804;51.176;4.452;2024-03-02T09:22:31;8.50;95.20
24686;DHT22;12804;51.176;4.452;2024-03-02T09:24:57;8.60;97.80
24686;DHT22;12804;51.176;4.452;2024-03-02T09:27:24;8.80;91.10
24686;DHT22;12804;51.176;4.452;2024-03-02T09:29:49;8.90;96.10
24686;DHT22;12804;51.176;4.452;2024-03-02T09:32:15;8.80;86.10
24686;DHT22;12804;51.176;4.452;2024-03-02T09:34:41;8.80;85.70
24686;DHT22;12804;51.176;4.452;2024-03-02T09:37:07;8.80;91.00
24686;DHT22;12804;51.176;4.452;2024-03-02T09:39:33;9.00;91.10
24686;DHT22;12804;51.176;4.452;2024-03-02T09:42:00;9.10;84.20
24686;DHT22;12804;51.176;4.452;2024-03-02T09:44:26;9.10;77.30
24686;DHT22;12804;51.176;4.452;2024-03-02T09:46:52;9.20;88.90
24686;DHT22;12804;51.176;4.452;2024-03-02T09:49:18;9.20;70.90
24686;DHT22;12804;51.176;4.452;2024-03-02T09:51:48;9.30;70.30
24686;DHT22;12804;51.176;4.452;2024-03-02T09:54:16;9.40;62.70
24686;DHT22;12804;51.176;4.452;2024-03-02T09:56:42;9.40;72.20
24686;DHT22;12804;51.176;4.452;2024-03-02T09:59:08;9.50;58.50
24686;DHT22;12804;51.176;4.452;2024-03-02T10:01:34;9.50;58.20
24686;DHT22;12804;51.176;4.452;2024-03-02T10:04:00;9.40;1.00
24686;DHT22;12804;51.176;4.452;2024-03-02T10:06:27;9.50;1.00
24686;DHT22;12804;51.176;4.452;2024-03-02T10:08:54;9.70;1.00
24686;DHT22;12804;51.176;4.452;2024-03-02T10:11:34;9.60;1.00
24686;DHT22;12804;51.176;4.452;2024-03-02T10:14:10;9.60;1.00
24686;DHT22;12804;51.176;4.452;2024-03-02T10:16:40;9.80;1.00
24686;DHT22;12804;51.176;4.452;2024-03-02T10:19:20;9.80;1.00
24686;DHT22;12804;51.176;4.452;2024-03-02T10:21:50;9.90;1.00
24686;DHT22;12804;51.176;4.452;2024-03-02T10:24:17;10.10;1.00
24686;DHT22;12804;51.176;4.452;2024-03-02T10:26:43;10.40;1.00
24686;DHT22;12804;51.176;4.452;2024-03-02T10:29:12;10.60;1.00
24686;DHT22;12804;51.176;4.452;2024-03-02T10:31:39;10.40;1.00
24686;DHT22;12804;51.176;4.452;2024-03-02T10:34:06;10.40;1.00
24686;DHT22;12804;51.176;4.452;2024-03-02T10:36:36;10.50;1.00
24686;DHT22;12804;51.176;4.452;2024-03-02T10:39:03;10.60;1.00
24686;DHT22;12804;51.176;4.452;2024-03-02T10:41:35;10.80;1.00
24686;DHT22;12804;51.176;4.452;2024-03-02T10:44:08;11.50;1.00
24686;DHT22;12804;51.176;4.452;2024-03-02T10:46:38;12.30;99.90
24686;DHT22;12804;51.176;4.452;2024-03-02T10:49:05;12.60;99.90
24686;DHT22;12804;51.176;4.452;2024-03-02T10:51:32;11.90;1.00
24686;DHT22;12804;51.176;4.452;2024-03-02T10:53:59;11.90;99.90
24686;DHT22;12804;51.176;4.452;2024-03-02T10:56:41;12.50;1.00
24686;DHT22;12804;51.176;4.452;2024-03-02T10:59:37;12.50;99.90
24686;DHT22;12804;51.176;4.452;2024-03-02T11:02:05;12.70;1.00
24686;DHT22;12804;51.176;4.452;2024-03-02T11:04:34;11.90;99.90
24686;DHT22;12804;51.176;4.452;2024-03-02T11:07:10;12.20;1.00
24686;DHT22;12804;51.176;4.452;2024-03-02T11:09:53;12.80;1.00
24686;DHT22;12804;51.176;4.452;2024-03-02T11:12:23;12.70;3.00
24686;DHT22;12804;51.176;4.452;2024-03-02T11:14:55;12.60;59.50
24686;DHT22;12804;51.176;4.452;2024-03-02T11:17:22;12.40;99.90
24686;DHT22;12804;51.176;4.452;2024-03-02T11:19:48;11.90;1.00
24686;DHT22;12804;51.176;4.452;2024-03-02T11:22:15;11.60;99.90
24686;DHT22;12804;51.176;4.452;2024-03-02T11:24:48;11.60;1.00
24686;DHT22;12804;51.176;4.452;2024-03-02T11:27:14;12.10;99.90
24686;DHT22;12804;51.176;4.452;2024-03-02T11:30:00;12.30;1.00
24686;DHT22;12804;51.176;4.452;2024-03-02T11:32:26;12.10;99.90
24686;DHT22;12804;51.176;4.452;2024-03-02T11:34:52;12.20;99.90
24686;DHT22;12804;51.176;4.452;2024-03-02T11:37:19;12.70;1.00
24686;DHT22;12804;51.176;4.452;2024-03-02T11:39:51;12.60;99.90
24686;DHT22;12804;51.176;4.452;2024-03-02T11:42:17;12.60;1.00
24686;DHT22;12804;51.176;4.452;2024-03-02T11:44:47;12.70;99.90
24686;DHT22;12804;51.176;4.452;2024-03-02T11:47:15;12.60;1.00
24686;DHT22;12804;51.176;4.452;2024-03-02T11:49:45;12.30;99.90
24686;DHT22;12804;51.176;4.452;2024-03-02T11:52:13;12.20;1.00
24686;DHT22;12804;51.176;4.452;2024-03-02T11:54:42;12.20;1.00
24686;DHT22;12804;51.176;4.452;2024-03-02T11:57:19;12.20;99.90
24686;DHT22;12804;51.176;4.452;2024-03-02T11:59:46;12.50;1.00
24686;DHT22;12804;51.176;4.452;2024-03-02T12:02:19;12.70;1.00
24686;DHT22;12804;51.176;4.452;2024-03-02T12:04:46;13.00;1.00
24686;DHT22;12804;51.176;4.452;2024-03-02T12:07:23;13.10;99.90
24686;DHT22;12804;51.176;4.452;2024-03-02T12:09:59;12.60;1.00
24686;DHT22;12804;51.176;4.452;2024-03-02T12:12:26;12.60;1.00
24686;DHT22;12804;51.176;4.452;2024-03-02T12:14:52;12.50;1.00
24686;DHT22;12804;51.176;4.452;2024-03-02T12:17:21;12.80;1.00
24686;DHT22;12804;51.176;4.452;2024-03-02T12:19:47;13.20;99.90
24686;DHT22;12804;51.176;4.452;2024-03-02T12:22:14;14.50;1.00
24686;DHT22;12804;51.176;4.452;2024-03-02T12:24:41;15.80;1.00
24686;DHT22;12804;51.176;4.452;2024-03-02T12:27:12;14.80;84.20
24686;DHT22;12804;51.176;4.452;2024-03-02T12:29:38;14.50;1.00
24686;DHT22;12804;51.176;4.452;2024-03-02T12:32:05;14.30;31.30
24686;DHT22;12804;51.176;4.452;2024-03-02T12:34:31;14.30;5.70
24686;DHT22;12804;51.176;4.452;2024-03-02T12:36:58;14.00;1.00
24686;DHT22;12804;51.176;4.452;2024-03-02T12:39:27;14.10;1.00
24686;DHT22;12804;51.176;4.452;2024-03-02T12:41:52;14.30;1.00
24686;DHT22;12804;51.176;4.452;2024-03-02T12:44:19;14.00;1.00
24686;DHT22;12804;51.176;4.452;2024-03-02T12:46:46;14.00;1.00
24686;DHT22;12804;51.176;4.452;2024-03-02T12:49:13;14.20;99.90
24686;DHT22;12804;51.176;4.452;2024-03-02T12:51:42;14.50;99.90
24686;DHT22;12804;51.176;4.452;2024-03-02T12:54:09;14.60;1.00
24686;DHT22;12804;51.176;4.452;2024-03-02T12:56:40;14.60;99.90
24686;DHT22;12804;51.176;4.452;2024-03-02T12:59:06;14.80;1.00
24686;DHT22;12804;51.176;4.452;2024-03-02T13:01:32;14.90;1.00
24686;DHT22;12804;51.176;4.452;2024-03-02T13:03:59;14.30;99.90
24686;DHT22;12804;51.176;4.452;2024-03-02T13:06:25;13.60;1.00
24686;DHT22;12804;51.176;4.452;2024-03-02T13:08:54;13.70;1.00
24686;DHT22;12804;51.176;4.452;2024-03-02T13:11:23;13.80;1.00
24686;DHT22;12804;51.176;4.452;2024-03-02T13:13:52;13.50;1.00
24686;DHT22;12804;51.176;4.452;2024-03-02T13:16:18;13.60;1.00
24686;DHT22;12804;51.176;4.452;2024-03-02T13:18:45;13.90;99.90
24686;DHT22;12804;51.176;4.452;2024-03-02T13:21:12;14.00;1.00
24686;DHT22;12804;51.176;4.452;2024-03-02T13:23:38;14.00;1.00
24686;DHT22;12804;51.176;4.452;2024-03-02T13:26:03;14.20;1.00
24686;DHT22;12804;51.176;4.452;2024-03-02T13:28:30;14.30;99.90
24686;DHT22;12804;51.176;4.452;2024-03-02T13:30:55;14.20;1.00
24686;DHT22;12804;51.176;4.452;2024-03-02T13:33:21;14.00;1.00
24686;DHT22;12804;51.176;4.452;2024-03-02T13:35:50;13.70;99.90
24686;DHT22;12804;51.176;4.452;2024-03-02T13:38:18;13.40;35.40
24686;DHT22;12804;51.176;4.452;2024-03-02T13:40:44;13.20;33.10
24686;DHT22;12804;51.176;4.452;2024-03-02T13:43:11;13.10;1.00
24686;DHT22;12804;51.176;4.452;2024-03-02T13:45:38;13.00;1.00
24686;DHT22;12804;51.176;4.452;2024-03-02T13:48:04;13.00;99.90
24686;DHT22;12804;51.176;4.452;2024-03-02T13:50:30;13.10;1.00
24686;DHT22;12804;51.176;4.452;2024-03-02T13:52:56;13.30;1.00
24686;DHT22;12804;51.176;4.452;2024-03-02T13:55:22;13.40;99.90
24686;DHT22;12804;51.176;4.452;2024-03-02T13:57:48;13.60;99.90
24686;DHT22;12804;51.176;4.452;2024-03-02T14:00:16;13.60;1.00
24686;DHT22;12804;51.176;4.452;2024-03-02T14:02:43;13.60;1.00
24686;DHT22;12804;51.176;4.452;2024-03-02T14:05:09;13.30;1.00
24686;DHT22;12804;51.176;4.452;2024-03-02T14:07:41;13.30;99.90
24686;DHT22;12804;51.176;4.452;2024-03-02T14:10:08;13.20;1.00
24686;DHT22;12804;51.176;4.452;2024-03-02T14:12:34;13.40;1.00
24686;DHT22;12804;51.176;4.452;2024-03-02T14:14:59;13.60;1.00
24686;DHT22;12804;51.176;4.452;2024-03-02T14:17:28;13.90;99.90
24686;DHT22;12804;51.176;4.452;2024-03-02T14:19:54;13.70;99.90
24686;DHT22;12804;51.176;4.452;2024-03-02T14:22:20;13.70;99.90
24686;DHT22;12804;51.176;4.452;2024-03-02T14:24:46;13.50;95.90
24686;DHT22;12804;51.176;4.452;2024-03-02T14:27:13;13.70;1.00
24686;DHT22;12804;51.176;4.452;2024-03-02T14:29:40;13.70;1.00
24686;DHT22;12804;51.176;4.452;2024-03-02T14:32:06;13.80;1.00
24686;DHT22;12804;51.176;4.452;2024-03-02T14:34:33;13.80;9.60
24686;DHT22;12804;51.176;4.452;2024-03-02T14:36:59;13.80;99.90
24686;DHT22;12804;51.176;4.452;2024-03-02T14:39:29;13.90;1.00
24686;DHT22;12804;51.176;4.452;2024-03-02T14:41:55;14.20;1.00
24686;DHT22;12804;51.176;4.452;2024-03-02T14:44:21;14.50;1.00
24686;DHT22;12804;51.176;4.452;2024-03-02T14:46:48;15.20;99.90
24686;DHT22;12804;51.176;4.452;2024-03-02T14:49:14;15.60;1.00
24686;DHT22;12804;51.176;4.452;2024-03-02T14:51:40;15.50;1.00
24686;DHT22;12804;51.176;4.452;2024-03-02T14:54:06;15.30;99.90
24686;DHT22;12804;51.176;4.452;2024-03-02T14:56:32;15.40;1.00
24686;DHT22;12804;51.176;4.452;2024-03-02T14:58:57;14.60;99.90
24686;DHT22;12804;51.176;4.452;2024-03-02T15:01:23;14.50;99.90
24686;DHT22;12804;51.176;4.452;2024-03-02T15:03:53;14.30;1.00
24686;DHT22;12804;51.176;4.452;2024-03-02T15:06:19;13.90;1.00
24686;DHT22;12804;51.176;4.452;2024-03-02T15:08:45;13.80;1.00
24686;DHT22;12804;51.176;4.452;2024-03-02T15:11:14;13.80;99.90
24686;DHT22;12804;51.176;4.452;2024-03-02T15:13:40;13.70;99.90
24686;DHT22;12804;51.176;4.452;2024-03-02T15:16:06;13.50;1.00
24686;DHT22;12804;51.176;4.452;2024-03-02T15:18:32;13.40;1.00
24686;DHT22;12804;51.176;4.452;2024-03-02T15:20:57;13.40;99.90
24686;DHT22;12804;51.176;4.452;2024-03-02T15:23:23;13.10;99.90
24686;DHT22;12804;51.176;4.452;2024-03-02T15:25:49;13.00;1.00
24686;DHT22;12804;51.176;4.452;2024-03-02T15:28:15;13.00;1.00
24686;DHT22;12804;51.176;4.452;2024-03-02T15:30:41;13.20;99.90
24686;DHT22;12804;51.176;4.452;2024-03-02T15:33:07;13.30;99.90
24686;DHT22;12804;51.176;4.452;2024-03-02T15:35:33;13.30;99.90
24686;DHT22;12804;51.176;4.452;2024-03-02T15:37:59;13.40;99.90
24686;DHT22;12804;51.176;4.452;2024-03-02T15:40:25;13.30;99.90
24686;DHT22;12804;51.176;4.452;2024-03-02T15:42:50;13.20;99.90
24686;DHT22;12804;51.176;4.452;2024-03-02T15:45:16;13.20;99.90